Time;durP1;ratioP1;P1;durP2;ratioP2;P2;SDS_P1;SDS_P2;PMS_P1;PMS_P2;Temp;Humidity;BMP_temperature;BMP_pressure;BME280_temperature;BME280_humidity;BME280_pressure;Samples;Min_cycle;Max_cycle;Signal;HPM_P1;HPM_P2
2024/03/21 00:01:33;;;;;;;10.70;6.97;;;10.70;99.90;;;;;;5011983;28;20967;-75
2024/03/21 00:03:58;;;;;;;9.20;6.17;;;10.70;99.90;;;;;;5007236;28;20450;-75
2024/03/21 00:06:25;;;;;;;8.87;6.50;;;10.60;99.90;;;;;;5009806;28;20551;-75
2024/03/21 00:08:51;;;;;;;6.90;6.17;;;10.60;99.90;;;;;;5011198;28;20640;-74
2024/03/21 00:11:16;;;;;;;8.30;5.93;;;10.60;99.90;;;;;;5010943;28;20444;-74
2024/03/21 00:13:42;;;;;;;12.10;6.57;;;10.60;99.90;;;;;;5011758;28;20173;-74
2024/03/21 00:16:07;;;;;;;6.93;5.77;;;10.70;99.90;;;;;;5012127;28;20253;-74
2024/03/21 00:18:33;;;;;;;7.83;5.80;;;10.70;99.90;;;;;;5008559;28;20187;-73
2024/03/21 00:20:59;;;;;;;7.47;6.63;;;10.60;99.90;;;;;;5011637;28;20225;-74
2024/03/21 00:23:25;;;;;;;9.03;6.03;;;10.60;99.90;;;;;;5011127;28;20245;-74
2024/03/21 00:25:51;;;;;;;6.03;5.43;;;10.50;99.90;;;;;;5008627;28;20230;-74
2024/03/21 00:28:16;;;;;;;5.33;4.83;;;10.50;99.90;;;;;;5013836;28;20461;-74
2024/03/21 00:30:43;;;;;;;9.83;5.20;;;10.50;99.90;;;;;;5015609;28;20608;-74
2024/03/21 00:33:10;;;;;;;7.67;5.40;;;10.50;99.90;;;;;;5015342;28;20183;-74
2024/03/21 00:35:36;;;;;;;7.27;5.40;;;10.50;99.90;;;;;;5015171;28;20779;-73
2024/03/21 00:38:01;;;;;;;6.37;5.20;;;10.50;99.90;;;;;;5013189;28;20532;-73
2024/03/21 00:40:27;;;;;;;7.33;4.77;;;10.40;99.90;;;;;;5014597;28;20195;-73
2024/03/21 00:42:53;;;;;;;7.90;5.50;;;10.40;99.90;;;;;;5014191;28;20269;-73
2024/03/21 00:45:18;;;;;;;5.50;4.80;;;10.30;99.90;;;;;;5015789;28;20672;-73
2024/03/21 00:47:44;;;;;;;6.10;4.93;;;10.30;99.90;;;;;;5014392;28;20662;-74
2024/03/21 00:50:09;;;;;;;9.63;6.20;;;10.30;99.90;;;;;;5015418;28;20329;-73
2024/03/21 00:52:35;;;;;;;6.37;5.37;;;10.30;99.90;;;;;;5003574;28;20210;-73
2024/03/21 00:55:00;;;;;;;6.43;5.67;;;10.30;99.90;;;;;;5015067;28;20222;-73
2024/03/21 00:57:27;;;;;;;7.77;5.30;;;10.30;99.90;;;;;;5010844;28;20179;-73
2024/03/21 00:59:53;;;;;;;6.67;4.87;;;10.40;99.90;;;;;;5012639;28;20202;-73
2024/03/21 01:02:19;;;;;;;5.00;4.50;;;10.30;99.90;;;;;;5014615;28;20934;-73
2024/03/21 01:04:50;;;;;;;6.20;5.70;;;10.30;99.90;;;;;;5001890;28;20931;-73
2024/03/21 01:07:18;;;;;;;5.03;4.53;;;10.20;99.90;;;;;;5013404;28;20220;-73
2024/03/21 01:09:45;;;;;;;5.33;4.80;;;10.20;99.90;;;;;;5014723;28;20461;-73
2024/03/21 01:12:11;;;;;;;6.17;4.60;;;10.10;99.90;;;;;;5014252;28;20521;-73
2024/03/21 01:14:37;;;;;;;7.00;4.53;;;10.10;99.90;;;;;;5013736;28;21011;-73
2024/03/21 01:17:03;;;;;;;6.53;5.93;;;10.10;99.90;;;;;;5014160;28;20183;-73
2024/03/21 01:19:28;;;;;;;4.93;4.53;;;10.10;99.90;;;;;;5011382;28;20586;-73
2024/03/21 01:21:54;;;;;;;6.50;4.90;;;10.00;99.90;;;;;;5014972;28;20426;-73
2024/03/21 01:24:19;;;;;;;9.40;5.20;;;10.00;99.90;;;;;;5004313;28;20183;-73
2024/03/21 01:26:45;;;;;;;8.43;6.10;;;10.10;99.90;;;;;;5009194;28;20618;-73
2024/03/21 01:29:10;;;;;;;5.67;5.17;;;10.10;99.90;;;;;;5014310;28;20203;-73
2024/03/21 01:31:36;;;;;;;6.27;5.20;;;10.10;99.90;;;;;;5011714;28;20182;-73
2024/03/21 01:34:01;;;;;;;7.63;6.03;;;10.10;99.90;;;;;;5012952;28;20180;-74
2024/03/21 01:36:29;;;;;;;10.07;6.23;;;10.10;99.90;;;;;;5013929;28;20171;-73
2024/03/21 01:38:55;;;;;;;5.40;4.20;;;10.10;99.90;;;;;;5011801;28;20813;-74
2024/03/21 01:41:21;;;;;;;4.93;4.53;;;10.10;99.90;;;;;;5012844;28;20508;-74
2024/03/21 01:43:46;;;;;;;3.93;3.63;;;10.00;99.90;;;;;;5013798;28;20207;-74
2024/03/21 01:46:21;;;;;;;8.00;5.50;;;10.10;99.90;;;;;;5014522;28;20199;-74
2024/03/21 01:48:49;;;;;;;6.17;4.57;;;10.10;99.90;;;;;;5014306;28;20254;-74
2024/03/21 01:51:17;;;;;;;5.80;5.20;;;10.10;99.90;;;;;;5013567;28;20441;-74
2024/03/21 01:53:44;;;;;;;5.30;4.80;;;10.20;99.90;;;;;;5009648;28;20438;-74
2024/03/21 01:56:10;;;;;;;12.30;4.70;;;10.20;99.90;;;;;;5014399;28;20552;-74
2024/03/21 01:58:35;;;;;;;6.10;4.40;;;10.20;99.90;;;;;;5012585;28;20953;-74
2024/03/21 02:01:36;;;;;;;4.60;4.13;;;10.20;99.90;;;;;;5009458;28;20583;-74
2024/03/21 02:04:04;;;;;;;4.47;4.10;;;10.20;99.90;;;;;;4966871;28;20188;-74
2024/03/21 02:06:32;;;;;;;5.50;4.10;;;10.20;99.90;;;;;;5004902;28;20561;-74
2024/03/21 02:09:01;;;;;;;7.63;5.23;;;10.10;99.90;;;;;;5012428;28;20464;-74
2024/03/21 02:11:27;;;;;;;5.20;4.80;;;10.10;99.90;;;;;;5012381;28;20433;-74
2024/03/21 02:13:54;;;;;;;8.90;6.33;;;10.00;99.90;;;;;;5012252;28;20979;-74
2024/03/21 02:16:23;;;;;;;4.70;4.13;;;10.00;99.90;;;;;;5009167;28;20780;-74
2024/03/21 02:18:50;;;;;;;4.50;3.90;;;10.00;99.90;;;;;;5011882;28;20441;-74
2024/03/21 02:24:00;;;;;;;8.20;5.50;;;10.20;99.90;;;;;;5010551;28;20436;-75
2024/03/21 02:26:26;;;;;;;6.73;6.03;;;10.30;99.90;;;;;;5012253;28;20826;-74
2024/03/21 02:28:52;;;;;;;7.43;4.83;;;10.30;99.90;;;;;;5008430;28;20183;-74
2024/03/21 02:31:22;;;;;;;9.50;4.03;;;10.50;99.90;;;;;;5012666;28;20187;-74
2024/03/21 02:33:48;;;;;;;4.07;3.67;;;10.70;99.90;;;;;;5018019;28;20438;-73
2024/03/21 02:36:14;;;;;;;4.33;4.03;;;10.80;99.90;;;;;;5012289;28;20456;-74
2024/03/21 02:38:40;;;;;;;4.20;3.80;;;10.90;99.90;;;;;;5013153;28;20512;-74
2024/03/21 02:41:06;;;;;;;4.33;3.93;;;11.10;99.90;;;;;;5010518;28;20183;-74
2024/03/21 02:43:31;;;;;;;4.37;3.97;;;11.10;99.90;;;;;;5006818;28;20244;-74
2024/03/21 02:45:57;;;;;;;6.57;4.30;;;11.20;99.90;;;;;;5011467;28;20548;-74
2024/03/21 02:48:22;;;;;;;4.60;4.20;;;11.20;99.90;;;;;;5011913;28;20179;-74
2024/03/21 02:50:48;;;;;;;4.70;4.30;;;11.20;99.90;;;;;;5012868;28;20207;-74
2024/03/21 02:53:13;;;;;;;5.93;3.90;;;11.20;99.90;;;;;;5012501;28;20187;-74
2024/03/21 02:55:39;;;;;;;4.30;3.90;;;11.30;99.90;;;;;;5013017;28;20722;-74
2024/03/21 02:58:04;;;;;;;4.43;4.10;;;11.30;99.90;;;;;;5008384;28;20187;-74
2024/03/21 03:00:30;;;;;;;6.03;4.40;;;11.40;99.90;;;;;;5011371;28;20210;-74
2024/03/21 03:02:55;;;;;;;5.80;4.27;;;11.40;99.90;;;;;;5010036;28;20186;-74
2024/03/21 03:05:21;;;;;;;3.93;3.63;;;11.40;99.90;;;;;;5012409;28;20202;-74
2024/03/21 03:07:46;;;;;;;5.43;3.90;;;11.40;99.90;;;;;;5011229;28;20225;-74
2024/03/21 03:10:14;;;;;;;4.50;4.10;;;11.40;99.90;;;;;;5013036;28;20199;-74
2024/03/21 03:12:39;;;;;;;5.07;3.90;;;11.40;99.90;;;;;;5012524;28;20221;-73
2024/03/21 03:15:05;;;;;;;4.00;3.60;;;11.50;99.90;;;;;;5011645;28;20793;-74
2024/03/21 03:17:31;;;;;;;5.20;3.67;;;11.50;99.90;;;;;;5012284;28;20171;-74
2024/03/21 03:19:56;;;;;;;4.50;4.10;;;11.50;99.90;;;;;;5007820;28;20491;-74
2024/03/21 03:22:22;;;;;;;4.57;4.03;;;11.50;99.90;;;;;;5009833;28;20228;-74
2024/03/21 03:24:48;;;;;;;3.97;3.57;;;11.50;99.90;;;;;;5011689;28;20309;-74
2024/03/21 03:27:13;;;;;;;5.73;3.87;;;11.60;99.90;;;;;;5010909;28;20211;-74
2024/03/21 03:29:39;;;;;;;5.53;3.67;;;11.60;99.90;;;;;;5008757;28;20187;-74
2024/03/21 03:32:05;;;;;;;4.03;3.63;;;11.60;99.90;;;;;;5012129;28;20206;-74
2024/03/21 03:37:15;;;;;;;3.90;3.60;;;11.50;99.90;;;;;;5010969;28;20189;-74
2024/03/21 03:39:41;;;;;;;5.83;3.60;;;11.50;99.90;;;;;;5008766;28;20484;-74
2024/03/21 03:42:06;;;;;;;3.70;3.40;;;11.50;99.90;;;;;;5010142;28;20433;-74
2024/03/21 03:44:32;;;;;;;4.10;3.70;;;11.50;99.90;;;;;;5010986;28;20182;-73
2024/03/21 03:46:57;;;;;;;4.13;3.70;;;11.50;99.90;;;;;;5026852;28;20234;-73
2024/03/21 03:49:23;;;;;;;4.73;4.27;;;11.60;99.90;;;;;;5027063;28;20215;-74
2024/03/21 03:51:48;;;;;;;3.97;3.57;;;11.60;99.90;;;;;;5026537;28;20183;-74
2024/03/21 03:54:14;;;;;;;4.67;4.27;;;11.60;99.90;;;;;;5027122;28;20194;-73
2024/03/21 03:56:39;;;;;;;4.10;3.70;;;11.70;99.90;;;;;;5022916;28;20187;-74
2024/03/21 03:59:05;;;;;;;4.73;4.30;;;11.70;99.90;;;;;;5011784;28;20286;-74
2024/03/21 04:01:31;;;;;;;5.17;4.60;;;11.70;99.90;;;;;;5012402;28;20637;-74
2024/03/21 04:03:56;;;;;;;6.80;4.07;;;11.70;99.90;;;;;;5009098;28;20194;-74
2024/03/21 04:06:21;;;;;;;4.90;3.73;;;11.70;99.90;;;;;;5011608;28;20217;-74
2024/03/21 04:08:47;;;;;;;4.20;3.90;;;11.70;99.90;;;;;;5008927;28;20185;-74
2024/03/21 04:11:14;;;;;;;4.17;3.87;;;11.70;99.90;;;;;;4998394;28;20181;-74
2024/03/21 04:13:40;;;;;;;4.20;3.87;;;11.70;99.90;;;;;;5010587;28;20175;-74
2024/03/21 04:16:12;;;;;;;4.90;4.50;;;11.70;99.90;;;;;;5010634;28;20434;-74
2024/03/21 04:18:38;;;;;;;3.77;3.47;;;11.70;99.90;;;;;;5009272;28;20710;-74
2024/03/21 04:21:04;;;;;;;6.60;4.03;;;11.80;99.90;;;;;;5014032;28;20421;-74
2024/03/21 04:23:29;;;;;;;4.67;3.90;;;11.80;99.90;;;;;;5012515;28;20183;-74
2024/03/21 04:25:55;;;;;;;3.63;3.43;;;11.80;99.90;;;;;;5010286;28;20234;-74
2024/03/21 04:28:20;;;;;;;4.53;4.10;;;11.90;99.90;;;;;;5009979;28;20178;-74
2024/03/21 04:30:46;;;;;;;4.03;3.30;;;11.90;99.90;;;;;;5004053;28;20210;-74
2024/03/21 04:33:11;;;;;;;3.50;3.30;;;11.90;99.90;;;;;;5010676;28;20548;-74
2024/03/21 04:35:37;;;;;;;4.07;3.77;;;11.80;99.90;;;;;;5010762;28;20187;-74
2024/03/21 04:38:02;;;;;;;4.10;3.80;;;11.90;99.90;;;;;;5010358;28;20199;-74
2024/03/21 04:40:28;;;;;;;3.73;3.43;;;11.90;99.90;;;;;;5011164;28;20278;-74
2024/03/21 04:42:53;;;;;;;4.07;3.63;;;11.90;99.90;;;;;;5010177;28;20186;-74
2024/03/21 04:45:21;;;;;;;4.53;4.10;;;11.90;99.90;;;;;;5006315;28;20190;-74
2024/03/21 04:47:47;;;;;;;4.00;3.70;;;11.80;99.90;;;;;;5010611;28;20179;-74
2024/03/21 04:50:12;;;;;;;3.93;3.40;;;11.90;99.90;;;;;;5011301;28;20441;-74
2024/03/21 04:52:38;;;;;;;4.27;3.97;;;11.90;99.90;;;;;;5011351;28;20203;-74
2024/03/21 04:55:04;;;;;;;3.50;3.20;;;11.90;99.90;;;;;;5010646;28;20633;-74
2024/03/21 04:57:29;;;;;;;3.60;3.30;;;11.90;99.90;;;;;;5010695;28;20179;-74
2024/03/21 04:59:55;;;;;;;4.40;3.60;;;11.90;99.90;;;;;;5009853;28;20476;-74
2024/03/21 05:02:21;;;;;;;4.37;4.07;;;11.90;99.90;;;;;;5011683;28;20183;-74
2024/03/21 05:04:46;;;;;;;5.43;3.67;;;11.80;99.90;;;;;;5007449;28;20294;-74
2024/03/21 05:07:12;;;;;;;4.27;3.87;;;11.90;99.90;;;;;;5009225;28;20187;-74
2024/03/21 05:09:37;;;;;;;5.57;3.97;;;11.90;99.90;;;;;;5009731;28;20195;-74
2024/03/21 05:12:03;;;;;;;5.00;3.73;;;11.90;99.90;;;;;;5006365;28;20200;-74
2024/03/21 05:14:33;;;;;;;3.57;3.20;;;11.90;99.90;;;;;;5014300;28;20229;-74
2024/03/21 05:17:00;;;;;;;3.50;3.20;;;11.90;99.90;;;;;;5012676;28;20179;-74
2024/03/21 05:19:26;;;;;;;3.80;3.40;;;11.90;99.90;;;;;;5014770;28;20989;-74
2024/03/21 05:21:51;;;;;;;4.00;3.70;;;11.90;99.90;;;;;;5014963;28;20433;-74
2024/03/21 05:24:17;;;;;;;3.83;3.43;;;11.90;99.90;;;;;;5012488;28;20226;-74
2024/03/21 05:26:42;;;;;;;4.10;3.80;;;11.90;99.90;;;;;;5012555;28;20909;-74
2024/03/21 05:29:08;;;;;;;4.10;3.10;;;12.00;99.90;;;;;;5013542;28;20260;-74
2024/03/21 05:31:33;;;;;;;3.90;3.53;;;12.00;99.90;;;;;;5014751;28;20167;-74
2024/03/21 05:34:00;;;;;;;4.60;3.93;;;12.00;99.90;;;;;;5014984;28;20187;-73
2024/03/21 05:36:26;;;;;;;5.03;3.40;;;12.10;99.90;;;;;;5012084;28;20185;-73
2024/03/21 05:38:52;;;;;;;3.90;3.47;;;12.10;99.90;;;;;;5014872;28;20445;-74
2024/03/21 05:41:17;;;;;;;4.10;3.70;;;12.20;99.90;;;;;;5012787;28;20853;-74
2024/03/21 05:43:43;;;;;;;6.20;4.20;;;12.20;99.90;;;;;;5013273;28;20188;-73
2024/03/21 05:46:09;;;;;;;3.50;3.20;;;12.20;99.90;;;;;;5008741;28;20194;-74
2024/03/21 05:48:35;;;;;;;5.90;4.57;;;12.30;99.90;;;;;;5007777;28;20255;-74
2024/03/21 05:51:01;;;;;;;3.90;3.50;;;12.30;99.90;;;;;;5012578;28;20225;-74
2024/03/21 05:53:27;;;;;;;5.40;3.70;;;12.30;99.90;;;;;;5014702;28;20503;-74
2024/03/21 05:55:58;;;;;;;11.13;4.13;;;12.40;99.90;;;;;;5014326;28;20517;-74
2024/03/21 05:58:23;;;;;;;4.50;3.53;;;12.50;99.90;;;;;;5012622;28;20433;-73
2024/03/21 06:03:41;;;;;;;6.33;5.00;;;12.60;99.90;;;;;;5014509;28;20831;-73
2024/03/21 06:06:07;;;;;;;6.97;3.50;;;12.60;99.90;;;;;;5014068;28;20462;-74
2024/03/21 06:08:32;;;;;;;4.87;4.47;;;12.60;99.90;;;;;;5013588;28;20445;-73
2024/03/21 06:10:58;;;;;;;4.43;3.80;;;12.70;99.90;;;;;;5009238;28;20478;-73
2024/03/21 06:13:24;;;;;;;7.43;3.57;;;12.70;99.90;;;;;;5012926;28;20183;-73
2024/03/21 06:15:49;;;;;;;4.13;3.77;;;12.70;99.90;;;;;;5012066;28;20190;-75
2024/03/21 06:18:15;;;;;;;5.50;3.40;;;12.80;99.90;;;;;;5009136;28;20215;-74
2024/03/21 06:20:42;;;;;;;4.83;4.40;;;12.80;99.90;;;;;;5012835;28;20206;-73
2024/03/21 06:23:07;;;;;;;4.37;3.63;;;12.80;99.90;;;;;;5008280;28;20813;-73
2024/03/21 06:25:33;;;;;;;3.70;3.40;;;12.80;99.90;;;;;;5013592;28;20446;-74
2024/03/21 06:28:00;;;;;;;4.30;3.90;;;12.80;99.90;;;;;;5008696;28;20182;-73
2024/03/21 06:30:25;;;;;;;5.20;3.97;;;12.80;99.90;;;;;;5012018;28;20199;-74
2024/03/21 06:32:53;;;;;;;4.30;3.93;;;12.80;99.90;;;;;;5010125;28;20495;-74
2024/03/21 06:35:18;;;;;;;3.97;3.20;;;12.80;99.90;;;;;;5006894;28;20427;-73
2024/03/21 06:37:44;;;;;;;3.93;3.57;;;12.80;99.90;;;;;;5013104;28;20467;-73
2024/03/21 06:40:11;;;;;;;6.57;3.70;;;12.80;99.90;;;;;;5013122;28;20550;-73
2024/03/21 06:42:36;;;;;;;6.70;5.40;;;12.80;99.90;;;;;;5013926;28;20540;-74
2024/03/21 06:45:04;;;;;;;5.83;5.30;;;12.70;99.90;;;;;;5011185;28;20520;-74
2024/03/21 06:47:30;;;;;;;5.40;4.90;;;12.60;99.90;;;;;;5012319;28;20206;-74
2024/03/21 06:49:58;;;;;;;5.73;4.33;;;12.60;99.90;;;;;;5009137;28;20461;-73
2024/03/21 06:52:24;;;;;;;4.67;4.30;;;12.60;99.90;;;;;;5013568;28;20313;-73
2024/03/21 06:54:49;;;;;;;4.67;3.83;;;12.60;99.90;;;;;;5008838;28;20502;-74
2024/03/21 06:57:15;;;;;;;4.27;3.87;;;12.70;99.90;;;;;;5012485;28;20236;-75
2024/03/21 06:59:41;;;;;;;6.00;4.53;;;12.80;99.90;;;;;;5010201;28;20215;-74
2024/03/21 07:02:07;;;;;;;9.50;5.20;;;12.80;99.90;;;;;;5010345;28;20187;-73
2024/03/21 07:04:33;;;;;;;4.97;4.47;;;12.80;99.90;;;;;;5013293;28;20430;-73
2024/03/21 07:06:58;;;;;;;5.93;4.20;;;12.80;99.90;;;;;;5009144;28;20816;-73
2024/03/21 07:09:24;;;;;;;3.53;3.23;;;12.90;99.90;;;;;;5001025;28;20281;-74
2024/03/21 07:11:50;;;;;;;4.23;3.93;;;12.90;99.90;;;;;;5012419;28;20193;-73
2024/03/21 07:14:16;;;;;;;4.20;3.80;;;12.80;99.90;;;;;;5012456;28;20255;-74
2024/03/21 07:16:41;;;;;;;8.03;6.57;;;12.90;99.90;;;;;;5009272;28;20528;-73
2024/03/21 07:19:07;;;;;;;4.10;3.70;;;13.00;99.90;;;;;;5011671;28;20194;-75
2024/03/21 07:21:33;;;;;;;6.80;4.50;;;12.90;99.90;;;;;;5012406;28;20178;-75
2024/03/21 07:23:59;;;;;;;7.63;5.83;;;12.80;99.90;;;;;;5009877;28;20448;-72
2024/03/21 07:26:24;;;;;;;5.93;4.67;;;12.70;99.90;;;;;;5010535;28;20187;-73
2024/03/21 07:28:50;;;;;;;8.47;5.13;;;12.70;99.90;;;;;;5010263;28;20229;-74
2024/03/21 07:31:15;;;;;;;4.50;4.20;;;12.70;99.90;;;;;;5009062;28;20237;-74
2024/03/21 07:33:41;;;;;;;6.43;5.43;;;12.70;99.90;;;;;;5012815;28;20178;-75
2024/03/21 07:36:07;;;;;;;5.37;4.40;;;12.80;99.90;;;;;;5012979;28;20186;-74
2024/03/21 07:38:33;;;;;;;4.50;4.20;;;13.00;99.90;;;;;;5011836;28;20175;-75
2024/03/21 07:41:00;;;;;;;5.10;4.70;;;13.10;99.90;;;;;;5012888;28;20442;-75
2024/03/21 07:43:26;;;;;;;5.23;4.73;;;13.30;99.90;;;;;;5010886;28;20187;-75
2024/03/21 07:45:52;;;;;;;5.63;5.10;;;13.50;99.90;;;;;;5012050;28;20461;-75
2024/03/21 07:48:18;;;;;;;5.33;4.83;;;13.60;99.90;;;;;;5012110;28;20938;-74
2024/03/21 07:50:43;;;;;;;5.97;4.30;;;13.90;99.90;;;;;;5012422;28;20183;-74
2024/03/21 07:53:09;;;;;;;5.27;4.77;;;14.20;99.90;;;;;;5012513;28;20178;-74
2024/03/21 07:55:34;;;;;;;5.27;4.87;;;14.20;99.90;;;;;;5012207;28;20550;-74
2024/03/21 07:58:01;;;;;;;4.87;4.40;;;14.40;99.90;;;;;;5011418;28;20178;-74
2024/03/21 08:00:30;;;;;;;5.37;5.00;;;14.50;99.90;;;;;;5012049;28;20213;-74
2024/03/21 08:02:55;;;;;;;5.30;4.80;;;14.60;99.90;;;;;;4998457;28;20425;-74
2024/03/21 08:05:21;;;;;;;5.77;3.93;;;14.80;99.90;;;;;;5012342;28;20953;-74
2024/03/21 08:07:47;;;;;;;5.07;4.67;;;14.90;99.90;;;;;;5008740;28;20199;-74
2024/03/21 08:10:13;;;;;;;6.13;4.80;;;15.00;99.90;;;;;;4992534;28;20195;-74
2024/03/21 08:12:38;;;;;;;6.40;4.47;;;15.00;99.90;;;;;;5007226;28;20688;-74
2024/03/21 08:15:04;;;;;;;4.13;3.83;;;15.10;99.90;;;;;;5011984;28;20564;-73
2024/03/21 08:17:30;;;;;;;5.13;4.67;;;15.20;99.90;;;;;;4996928;28;20668;-73
2024/03/21 08:19:56;;;;;;;6.63;5.10;;;15.20;99.90;;;;;;4992571;28;20446;-74
2024/03/21 08:22:22;;;;;;;4.57;4.17;;;15.20;99.90;;;;;;5001553;28;20178;-74
2024/03/21 08:24:48;;;;;;;7.23;6.60;;;15.40;99.90;;;;;;5012293;28;20414;-74
2024/03/21 08:27:17;;;;;;;5.30;4.80;;;15.30;99.90;;;;;;5000287;28;20199;-74
2024/03/21 08:29:43;;;;;;;6.73;4.53;;;15.30;99.90;;;;;;4992420;28;20865;-74
2024/03/21 08:32:11;;;;;;;4.37;4.07;;;15.30;99.90;;;;;;4998123;28;20422;-74
2024/03/21 08:34:36;;;;;;;9.57;5.30;;;15.20;99.90;;;;;;4992723;28;20431;-73
2024/03/21 08:37:02;;;;;;;6.63;4.40;;;15.30;99.90;;;;;;4988439;28;20438;-73
2024/03/21 08:39:28;;;;;;;5.50;5.00;;;15.30;99.90;;;;;;5003997;28;20698;-73
2024/03/21 08:41:53;;;;;;;6.90;5.10;;;15.50;99.90;;;;;;5011567;28;20426;-73
2024/03/21 08:44:19;;;;;;;6.00;5.40;;;15.60;99.90;;;;;;5011622;28;20175;-73
2024/03/21 08:46:44;;;;;;;5.20;4.80;;;15.50;99.90;;;;;;5008301;28;21116;-73
2024/03/21 08:49:11;;;;;;;5.70;5.20;;;15.40;99.90;;;;;;4996183;28;20204;-73
2024/03/21 08:51:37;;;;;;;6.33;5.60;;;15.60;99.90;;;;;;4996016;28;20798;-73
2024/03/21 08:54:03;;;;;;;7.20;4.67;;;15.60;99.90;;;;;;5007071;28;20444;-72
2024/03/21 08:56:31;;;;;;;6.00;5.40;;;15.80;99.90;;;;;;5009723;28;20183;-74
2024/03/21 08:58:56;;;;;;;5.50;5.00;;;16.10;99.90;;;;;;5002588;28;20769;-73
2024/03/21 09:01:22;;;;;;;5.60;5.20;;;16.30;99.90;;;;;;4995745;28;20426;-74
2024/03/21 09:03:47;;;;;;;7.73;5.77;;;16.50;99.90;;;;;;5014302;28;20190;-74
2024/03/21 09:06:13;;;;;;;5.83;5.23;;;16.60;99.90;;;;;;5015236;28;20723;-74
2024/03/21 09:08:38;;;;;;;6.00;5.40;;;16.60;99.90;;;;;;5010965;28;20703;-74
2024/03/21 09:11:04;;;;;;;5.63;5.10;;;16.40;99.90;;;;;;4995765;28;20176;-74
2024/03/21 09:13:30;;;;;;;5.63;5.17;;;16.40;99.90;;;;;;4995502;28;20179;-74
2024/03/21 09:15:57;;;;;;;6.47;5.97;;;16.60;99.90;;;;;;5014829;28;20182;-74
2024/03/21 09:18:22;;;;;;;6.13;5.40;;;17.30;99.90;;;;;;4999592;28;20923;-75
2024/03/21 09:20:50;;;;;;;5.83;5.30;;;18.00;99.90;;;;;;5002217;28;20457;-75
2024/03/21 09:23:16;;;;;;;4.80;4.37;;;18.60;99.90;;;;;;5007993;28;20234;-74
2024/03/21 09:25:42;;;;;;;6.30;5.70;;;18.70;99.90;;;;;;5014704;28;20461;-74
2024/03/21 09:28:07;;;;;;;5.50;5.00;;;19.20;99.90;;;;;;5013981;28;20179;-74
2024/03/21 09:30:33;;;;;;;6.27;5.40;;;19.80;99.90;;;;;;5014799;28;20202;-74
2024/03/21 09:32:58;;;;;;;6.10;5.50;;;20.20;99.90;;;;;;5006656;28;20190;-74
2024/03/21 09:35:24;;;;;;;5.70;5.30;;;20.50;99.90;;;;;;5002427;28;20653;-74
2024/03/21 09:37:49;;;;;;;5.90;5.40;;;20.20;99.90;;;;;;5013746;28;20175;-74
2024/03/21 09:40:17;;;;;;;6.10;5.60;;;20.00;99.90;;;;;;5014680;28;20253;-75
2024/03/21 09:42:43;;;;;;;5.50;5.10;;;20.90;99.90;;;;;;5000017;28;20195;-74
2024/03/21 09:45:13;;;;;;;5.30;4.20;;;21.40;99.90;;;;;;5006580;28;21017;-74
2024/03/21 09:47:40;;;;;;;5.00;4.30;;;21.20;99.90;;;;;;5010749;28;20179;-76
2024/03/21 09:50:09;;;;;;;5.20;4.70;;;21.60;99.90;;;;;;4994753;28;20457;-75
2024/03/21 09:52:35;;;;;;;6.00;5.40;;;21.30;99.90;;;;;;5003059;28;20771;-75
2024/03/21 09:55:02;;;;;;;5.10;4.70;;;20.70;99.90;;;;;;4998356;28;20510;-75
2024/03/21 09:57:28;;;;;;;5.60;4.93;;;20.40;99.90;;;;;;5010683;28;20522;-75
2024/03/21 09:59:54;;;;;;;5.03;4.67;;;19.60;99.90;;;;;;5015091;28;20986;-75
2024/03/21 10:02:19;;;;;;;8.00;5.57;;;20.40;99.90;;;;;;5015426;28;20179;-75
2024/03/21 10:04:46;;;;;;;7.27;6.30;;;20.70;99.90;;;;;;4996098;28;20422;-75
2024/03/21 10:07:23;;;;;;;7.93;6.13;;;20.00;99.90;;;;;;5004880;28;20700;-76
2024/03/21 10:09:56;;;;;;;7.30;6.63;;;19.50;99.90;;;;;;5014408;28;20506;-76
2024/03/21 10:12:23;;;;;;;6.07;5.37;;;18.50;99.90;;;;;;5013636;28;20842;-75
2024/03/21 10:14:53;;;;;;;6.77;5.10;;;18.20;99.90;;;;;;4996898;28;20476;-76
2024/03/21 10:17:18;;;;;;;5.80;5.30;;;18.20;99.90;;;;;;5002491;28;20939;-76
2024/03/21 10:19:44;;;;;;;6.20;5.57;;;18.90;99.90;;;;;;4998354;28;20450;-76
2024/03/21 10:22:19;;;;;;;6.37;5.43;;;20.90;99.90;;;;;;4995493;28;20183;-77
2024/03/21 10:24:51;;;;;;;5.93;5.43;;;22.80;98.60;;;;;;4994831;28;20793;-76
2024/03/21 10:27:17;;;;;;;6.00;5.50;;;24.40;93.20;;;;;;5012848;28;20476;-76
2024/03/21 10:29:44;;;;;;;6.33;5.83;;;25.20;87.50;;;;;;5014083;28;20438;-76
2024/03/21 10:32:19;;;;;;;5.83;5.23;;;26.60;78.60;;;;;;5013982;28;20430;-74
2024/03/21 10:34:50;;;;;;;6.53;5.93;;;27.30;69.60;;;;;;4998193;28;20426;-75
2024/03/21 10:37:17;;;;;;;5.20;4.80;;;26.30;66.40;;;;;;4993830;28;20921;-76
2024/03/21 10:39:42;;;;;;;6.00;5.23;;;24.90;70.50;;;;;;4994416;28;20431;-76
2024/03/21 10:42:22;;;;;;;6.03;5.47;;;23.80;74.50;;;;;;4995095;28;20411;-76
2024/03/21 10:44:54;;;;;;;5.97;5.37;;;24.20;73.10;;;;;;5008993;28;20610;-77
2024/03/21 10:47:20;;;;;;;6.40;5.90;;;25.60;69.50;;;;;;5013945;28;20556;-74
2024/03/21 10:49:47;;;;;;;6.93;6.30;;;25.30;68.10;;;;;;5002094;28;21135;-75
2024/03/21 10:52:14;;;;;;;12.17;7.30;;;25.00;68.90;;;;;;4995516;28;20262;-77
2024/03/21 10:54:41;;;;;;;7.03;6.37;;;24.20;68.90;;;;;;4995188;28;20415;-75
2024/03/21 10:57:17;;;;;;;10.50;6.33;;;24.50;68.70;;;;;;5010228;28;20433;-75
2024/03/21 10:59:43;;;;;;;7.47;6.77;;;23.70;71.00;;;;;;5013417;28;20869;-75
2024/03/21 11:02:13;;;;;;;9.70;8.17;;;23.10;72.80;;;;;;5013198;28;20939;-75
2024/03/21 11:04:42;;;;;;;9.10;8.20;;;22.40;74.30;;;;;;5003618;28;20426;-75
2024/03/21 11:07:13;;;;;;;9.00;8.20;;;23.00;74.60;;;;;;4992955;28;20454;-70
2024/03/21 11:09:42;;;;;;;8.80;8.10;;;23.40;70.40;;;;;;5001389;28;20541;-72
2024/03/21 11:12:08;;;;;;;14.10;7.73;;;22.70;73.10;;;;;;5013290;28;21105;-72
2024/03/21 11:14:34;;;;;;;7.90;7.10;;;23.50;71.10;;;;;;5005134;28;20414;-72
2024/03/21 11:17:00;;;;;;;7.57;6.97;;;25.60;66.30;;;;;;4992931;28;20434;-70
2024/03/21 11:19:26;;;;;;;6.60;6.10;;;25.70;63.00;;;;;;4990936;28;20191;-69
2024/03/21 11:21:51;;;;;;;7.40;6.80;;;25.00;63.10;;;;;;4993447;28;20181;-69
2024/03/21 11:24:17;;;;;;;8.87;8.00;;;24.40;65.50;;;;;;4993405;28;20476;-69
2024/03/21 11:26:42;;;;;;;7.23;6.53;;;23.90;66.20;;;;;;5001606;28;20245;-69
2024/03/21 11:29:12;;;;;;;10.80;7.47;;;23.20;68.00;;;;;;5013189;28;20249;-68
2024/03/21 11:31:41;;;;;;;8.73;7.50;;;21.80;70.30;;;;;;5012970;28;20167;-68
2024/03/21 11:34:07;;;;;;;9.00;8.20;;;21.10;75.00;;;;;;5011078;28;20440;-69
2024/03/21 11:36:34;;;;;;;9.33;8.37;;;20.60;78.20;;;;;;4992542;28;20431;-69
2024/03/21 11:38:59;;;;;;;7.27;6.67;;;20.40;78.90;;;;;;4993089;28;20442;-69
2024/03/21 11:41:25;;;;;;;8.70;8.10;;;21.90;78.10;;;;;;4993273;28;20430;-70
2024/03/21 11:43:52;;;;;;;7.37;6.67;;;24.80;66.30;;;;;;4993303;28;20596;-70
2024/03/21 11:46:19;;;;;;;8.80;8.00;;;26.70;61.50;;;;;;5011523;28;20280;-70
2024/03/21 11:49:09;;;;;;;7.90;7.20;;;28.40;56.40;;;;;;5011705;28;20436;-70
2024/03/21 11:51:35;;;;;;;8.00;6.77;;;27.20;53.40;;;;;;4993373;28;20924;-70
2024/03/21 11:54:05;;;;;;;9.07;6.70;;;24.90;56.50;;;;;;4993330;28;20433;-69
2024/03/21 11:56:31;;;;;;;7.43;6.73;;;23.60;58.80;;;;;;5006763;28;20191;-69
2024/03/21 11:58:56;;;;;;;8.47;7.63;;;22.40;63.60;;;;;;5009100;28;20429;-69
2024/03/21 12:01:22;;;;;;;7.60;7.00;;;22.30;65.30;;;;;;5012507;28;20417;-70
2024/03/21 12:03:48;;;;;;;8.43;7.73;;;23.20;64.50;;;;;;5011892;28;20194;-69
2024/03/21 12:06:14;;;;;;;10.93;9.67;;;23.60;61.90;;;;;;4997589;28;20466;-69
2024/03/21 12:08:39;;;;;;;9.70;8.90;;;22.70;63.80;;;;;;5010159;28;20182;-69
2024/03/21 12:11:18;;;;;;;10.00;9.10;;;22.10;66.20;;;;;;5012408;28;20182;-69
2024/03/21 12:13:44;;;;;;;11.17;10.17;;;21.70;66.90;;;;;;5012095;28;20217;-70
2024/03/21 12:16:12;;;;;;;11.47;10.57;;;22.00;68.60;;;;;;5012234;28;20422;-69
2024/03/21 12:18:38;;;;;;;10.87;9.80;;;22.40;67.70;;;;;;4993435;28;20197;-69
2024/03/21 12:21:04;;;;;;;12.20;10.90;;;22.10;68.30;;;;;;5002661;28;20512;-70
2024/03/21 12:23:30;;;;;;;10.00;9.03;;;21.10;69.00;;;;;;5012449;28;20217;-70
2024/03/21 12:25:55;;;;;;;8.30;7.50;;;20.90;69.60;;;;;;5011957;28;20248;-70
2024/03/21 12:28:25;;;;;;;8.63;7.93;;;22.80;67.60;;;;;;5011333;28;20661;-70
2024/03/21 12:30:51;;;;;;;9.37;8.30;;;23.60;61.50;;;;;;4994631;28;20223;-70
2024/03/21 12:33:17;;;;;;;8.50;7.57;;;22.30;62.70;;;;;;4994152;28;20454;-69
2024/03/21 12:35:42;;;;;;;9.43;8.57;;;21.20;67.90;;;;;;5006004;28;20577;-70
2024/03/21 12:38:08;;;;;;;8.90;8.23;;;20.20;70.60;;;;;;4991694;28;20557;-69
2024/03/21 12:40:34;;;;;;;10.03;8.57;;;19.60;74.80;;;;;;4992486;28;20326;-69
2024/03/21 12:42:59;;;;;;;9.83;9.10;;;19.00;78.00;;;;;;4992385;28;20237;-69
2024/03/21 12:45:25;;;;;;;8.73;7.93;;;18.60;81.80;;;;;;5004667;28;20187;-69
2024/03/21 12:47:50;;;;;;;9.20;8.30;;;18.60;83.80;;;;;;4991599;28;20579;-69
2024/03/21 12:50:16;;;;;;;10.40;9.40;;;18.50;86.50;;;;;;4992541;28;20567;-69